sensor_id;sensor_type;location;lat;lon;timestamp;P1;durP1;ratioP1;P2;durP2;ratioP2
41293;SDS011;27037;52.010;4.446;2023-04-01T00:02:17;144.88;;;16.67;;
41293;SDS011;27037;52.010;4.446;2023-04-01T00:04:42;131.68;;;17.40;;
41293;SDS011;27037;52.010;4.446;2023-04-01T00:07:08;119.25;;;17.73;;
41293;SDS011;27037;52.010;4.446;2023-04-01T00:09:34;111.50;;;17.30;;
41293;SDS011;27037;52.010;4.446;2023-04-01T00:12:00;128.40;;;16.90;;
41293;SDS011;27037;52.010;4.446;2023-04-01T00:14:25;119.30;;;15.32;;
41293;SDS011;27037;52.010;4.446;2023-04-01T00:16:51;108.15;;;15.07;;
41293;SDS011;27037;52.010;4.446;2023-04-01T00:19:17;105.32;;;17.00;;
41293;SDS011;27037;52.010;4.446;2023-04-01T00:21:43;98.65;;;14.75;;
41293;SDS011;27037;52.010;4.446;2023-04-01T00:24:09;84.75;;;14.05;;
41293;SDS011;27037;52.010;4.446;2023-04-01T00:26:34;107.13;;;14.52;;
41293;SDS011;27037;52.010;4.446;2023-04-01T00:29:00;96.85;;;14.23;;
41293;SDS011;27037;52.010;4.446;2023-04-01T00:31:26;87.18;;;14.50;;
41293;SDS011;27037;52.010;4.446;2023-04-01T00:33:52;70.75;;;14.68;;
41293;SDS011;27037;52.010;4.446;2023-04-01T00:36:19;90.63;;;15.93;;
41293;SDS011;27037;52.010;4.446;2023-04-01T00:38:46;90.88;;;14.50;;
41293;SDS011;27037;52.010;4.446;2023-04-01T00:41:13;106.93;;;15.75;;
41293;SDS011;27037;52.010;4.446;2023-04-01T00:43:41;110.60;;;15.13;;
41293;SDS011;27037;52.010;4.446;2023-04-01T00:46:07;107.22;;;16.48;;
41293;SDS011;27037;52.010;4.446;2023-04-01T00:48:34;115.47;;;15.20;;
41293;SDS011;27037;52.010;4.446;2023-04-01T00:51:06;83.18;;;14.63;;
41293;SDS011;27037;52.010;4.446;2023-04-01T00:53:36;95.70;;;15.68;;
41293;SDS011;27037;52.010;4.446;2023-04-01T00:56:10;119.43;;;18.10;;
41293;SDS011;27037;52.010;4.446;2023-04-01T00:58:40;99.68;;;17.95;;
41293;SDS011;27037;52.010;4.446;2023-04-01T01:01:08;106.13;;;15.30;;
41293;SDS011;27037;52.010;4.446;2023-04-01T01:03:34;99.32;;;14.27;;
41293;SDS011;27037;52.010;4.446;2023-04-01T01:08:37;76.47;;;13.80;;
41293;SDS011;27037;52.010;4.446;2023-04-01T01:11:19;70.00;;;13.65;;
41293;SDS011;27037;52.010;4.446;2023-04-01T01:14:07;64.88;;;13.05;;
41293;SDS011;27037;52.010;4.446;2023-04-01T01:16:43;64.07;;;11.77;;
41293;SDS011;27037;52.010;4.446;2023-04-01T01:19:24;66.53;;;13.05;;
41293;SDS011;27037;52.010;4.446;2023-04-01T01:22:36;51.13;;;12.48;;
41293;SDS011;27037;52.010;4.446;2023-04-01T01:27:45;57.80;;;11.85;;
41293;SDS011;27037;52.010;4.446;2023-04-01T01:30:32;54.08;;;12.68;;
41293;SDS011;27037;52.010;4.446;2023-04-01T01:36:09;56.90;;;12.45;;
41293;SDS011;27037;52.010;4.446;2023-04-01T01:38:38;69.93;;;14.27;;
41293;SDS011;27037;52.010;4.446;2023-04-01T01:41:05;66.60;;;15.20;;
41293;SDS011;27037;52.010;4.446;2023-04-01T01:43:33;41.75;;;11.10;;
41293;SDS011;27037;52.010;4.446;2023-04-01T01:46:07;43.72;;;11.07;;
41293;SDS011;27037;52.010;4.446;2023-04-01T01:48:37;35.53;;;9.73;;
41293;SDS011;27037;52.010;4.446;2023-04-01T01:51:05;39.90;;;10.10;;
41293;SDS011;27037;52.010;4.446;2023-04-01T01:53:31;41.50;;;8.80;;
41293;SDS011;27037;52.010;4.446;2023-04-01T01:55:56;29.00;;;7.47;;
41293;SDS011;27037;52.010;4.446;2023-04-01T02:00:58;36.10;;;7.47;;
41293;SDS011;27037;52.010;4.446;2023-04-01T02:03:27;25.45;;;6.93;;
41293;SDS011;27037;52.010;4.446;2023-04-01T02:05:56;37.25;;;8.95;;
41293;SDS011;27037;52.010;4.446;2023-04-01T02:11:17;33.35;;;8.88;;
41293;SDS011;27037;52.010;4.446;2023-04-01T02:13:54;29.55;;;8.55;;
41293;SDS011;27037;52.010;4.446;2023-04-01T02:16:28;31.38;;;8.73;;
41293;SDS011;27037;52.010;4.446;2023-04-01T02:19:24;26.65;;;7.47;;
41293;SDS011;27037;52.010;4.446;2023-04-01T02:21:53;32.08;;;9.63;;
41293;SDS011;27037;52.010;4.446;2023-04-01T02:24:22;23.45;;;7.85;;
41293;SDS011;27037;52.010;4.446;2023-04-01T02:26:51;29.35;;;7.75;;
41293;SDS011;27037;52.010;4.446;2023-04-01T02:29:18;24.05;;;8.00;;
41293;SDS011;27037;52.010;4.446;2023-04-01T02:31:46;24.27;;;8.43;;
41293;SDS011;27037;52.010;4.446;2023-04-01T02:34:13;26.02;;;8.50;;
41293;SDS011;27037;52.010;4.446;2023-04-01T02:36:39;26.67;;;9.02;;
41293;SDS011;27037;52.010;4.446;2023-04-01T02:39:05;31.85;;;10.18;;
41293;SDS011;27037;52.010;4.446;2023-04-01T02:41:31;34.20;;;10.48;;
41293;SDS011;27037;52.010;4.446;2023-04-01T02:44:03;23.40;;;9.50;;
41293;SDS011;27037;52.010;4.446;2023-04-01T02:46:29;28.17;;;10.57;;
41293;SDS011;27037;52.010;4.446;2023-04-01T02:48:54;29.45;;;10.82;;
41293;SDS011;27037;52.010;4.446;2023-04-01T02:51:20;31.92;;;11.43;;
41293;SDS011;27037;52.010;4.446;2023-04-01T02:53:45;27.08;;;11.95;;
41293;SDS011;27037;52.010;4.446;2023-04-01T02:56:11;33.95;;;13.18;;
41293;SDS011;27037;52.010;4.446;2023-04-01T02:58:36;35.67;;;13.80;;
41293;SDS011;27037;52.010;4.446;2023-04-01T03:01:02;39.45;;;14.90;;
41293;SDS011;27037;52.010;4.446;2023-04-01T03:03:28;43.13;;;14.98;;
41293;SDS011;27037;52.010;4.446;2023-04-01T03:05:53;50.88;;;16.60;;
41293;SDS011;27037;52.010;4.446;2023-04-01T03:08:21;49.63;;;18.08;;
41293;SDS011;27037;52.010;4.446;2023-04-01T03:10:46;52.58;;;18.58;;
41293;SDS011;27037;52.010;4.446;2023-04-01T03:13:12;61.53;;;20.38;;
41293;SDS011;27037;52.010;4.446;2023-04-01T03:15:37;68.07;;;21.08;;
41293;SDS011;27037;52.010;4.446;2023-04-01T03:18:03;70.07;;;21.38;;
41293;SDS011;27037;52.010;4.446;2023-04-01T03:20:29;66.68;;;21.92;;
41293;SDS011;27037;52.010;4.446;2023-04-01T03:22:54;72.45;;;23.40;;
41293;SDS011;27037;52.010;4.446;2023-04-01T03:25:20;69.03;;;22.02;;
41293;SDS011;27037;52.010;4.446;2023-04-01T03:27:46;63.88;;;19.48;;
41293;SDS011;27037;52.010;4.446;2023-04-01T03:30:11;59.40;;;19.30;;
41293;SDS011;27037;52.010;4.446;2023-04-01T03:32:37;51.33;;;17.92;;
41293;SDS011;27037;52.010;4.446;2023-04-01T03:35:02;51.13;;;17.60;;
41293;SDS011;27037;52.010;4.446;2023-04-01T03:37:29;51.95;;;17.35;;
41293;SDS011;27037;52.010;4.446;2023-04-01T03:39:55;51.10;;;17.95;;
41293;SDS011;27037;52.010;4.446;2023-04-01T03:42:21;46.05;;;16.83;;
41293;SDS011;27037;52.010;4.446;2023-04-01T03:44:46;49.83;;;16.60;;
41293;SDS011;27037;52.010;4.446;2023-04-01T03:47:12;51.67;;;17.67;;
41293;SDS011;27037;52.010;4.446;2023-04-01T03:49:37;51.03;;;16.80;;
41293;SDS011;27037;52.010;4.446;2023-04-01T03:52:03;51.55;;;17.42;;
41293;SDS011;27037;52.010;4.446;2023-04-01T03:54:28;53.15;;;16.98;;
41293;SDS011;27037;52.010;4.446;2023-04-01T03:56:54;56.60;;;17.95;;
41293;SDS011;27037;52.010;4.446;2023-04-01T03:59:20;64.18;;;19.00;;
41293;SDS011;27037;52.010;4.446;2023-04-01T04:01:46;68.65;;;17.17;;
41293;SDS011;27037;52.010;4.446;2023-04-01T04:04:12;52.97;;;16.48;;
41293;SDS011;27037;52.010;4.446;2023-04-01T04:06:39;52.55;;;17.08;;
41293;SDS011;27037;52.010;4.446;2023-04-01T04:09:04;55.42;;;17.42;;
41293;SDS011;27037;52.010;4.446;2023-04-01T04:11:31;52.75;;;17.65;;
41293;SDS011;27037;52.010;4.446;2023-04-01T04:13:57;48.25;;;16.88;;
41293;SDS011;27037;52.010;4.446;2023-04-01T04:16:23;47.03;;;15.80;;
41293;SDS011;27037;52.010;4.446;2023-04-01T04:18:49;42.45;;;16.17;;
41293;SDS011;27037;52.010;4.446;2023-04-01T04:21:16;46.05;;;16.15;;
41293;SDS011;27037;52.010;4.446;2023-04-01T04:23:42;46.80;;;17.10;;
41293;SDS011;27037;52.010;4.446;2023-04-01T04:26:09;42.83;;;16.55;;
41293;SDS011;27037;52.010;4.446;2023-04-01T04:28:36;46.88;;;16.48;;
41293;SDS011;27037;52.010;4.446;2023-04-01T04:31:03;50.45;;;16.95;;
41293;SDS011;27037;52.010;4.446;2023-04-01T04:33:33;46.80;;;16.77;;
41293;SDS011;27037;52.010;4.446;2023-04-01T04:35:59;44.72;;;16.50;;
41293;SDS011;27037;52.010;4.446;2023-04-01T04:38:25;41.05;;;16.17;;
41293;SDS011;27037;52.010;4.446;2023-04-01T04:40:51;51.30;;;17.20;;
41293;SDS011;27037;52.010;4.446;2023-04-01T04:43:17;46.75;;;17.85;;
41293;SDS011;27037;52.010;4.446;2023-04-01T04:45:43;48.75;;;15.60;;
41293;SDS011;27037;52.010;4.446;2023-04-01T04:48:10;44.95;;;16.67;;
41293;SDS011;27037;52.010;4.446;2023-04-01T04:50:44;51.35;;;17.45;;
41293;SDS011;27037;52.010;4.446;2023-04-01T04:53:13;49.78;;;17.80;;
41293;SDS011;27037;52.010;4.446;2023-04-01T04:55:47;49.22;;;18.45;;
41293;SDS011;27037;52.010;4.446;2023-04-01T04:58:14;48.55;;;17.85;;
41293;SDS011;27037;52.010;4.446;2023-04-01T05:00:40;45.75;;;17.38;;
41293;SDS011;27037;52.010;4.446;2023-04-01T05:03:06;48.00;;;17.67;;
41293;SDS011;27037;52.010;4.446;2023-04-01T05:05:32;51.10;;;18.10;;
41293;SDS011;27037;52.010;4.446;2023-04-01T05:07:58;49.33;;;19.52;;
41293;SDS011;27037;52.010;4.446;2023-04-01T05:10:24;53.38;;;18.52;;
41293;SDS011;27037;52.010;4.446;2023-04-01T05:12:50;47.70;;;18.05;;
41293;SDS011;27037;52.010;4.446;2023-04-01T05:15:15;53.40;;;20.45;;
41293;SDS011;27037;52.010;4.446;2023-04-01T05:17:41;54.95;;;20.48;;
41293;SDS011;27037;52.010;4.446;2023-04-01T05:20:07;52.60;;;19.42;;
41293;SDS011;27037;52.010;4.446;2023-04-01T05:22:33;59.15;;;20.00;;
41293;SDS011;27037;52.010;4.446;2023-04-01T05:24:58;50.42;;;19.55;;
41293;SDS011;27037;52.010;4.446;2023-04-01T05:27:24;51.63;;;19.60;;
41293;SDS011;27037;52.010;4.446;2023-04-01T05:29:49;53.72;;;20.42;;
41293;SDS011;27037;52.010;4.446;2023-04-01T05:32:15;49.70;;;20.10;;
41293;SDS011;27037;52.010;4.446;2023-04-01T05:34:41;52.85;;;19.38;;
41293;SDS011;27037;52.010;4.446;2023-04-01T05:37:07;55.75;;;19.33;;
41293;SDS011;27037;52.010;4.446;2023-04-01T05:39:36;47.53;;;17.90;;
41293;SDS011;27037;52.010;4.446;2023-04-01T05:42:03;46.53;;;18.48;;
41293;SDS011;27037;52.010;4.446;2023-04-01T05:44:30;47.60;;;18.98;;
41293;SDS011;27037;52.010;4.446;2023-04-01T05:46:55;47.15;;;17.02;;
41293;SDS011;27037;52.010;4.446;2023-04-01T05:49:21;47.13;;;16.75;;
41293;SDS011;27037;52.010;4.446;2023-04-01T05:51:47;48.65;;;16.50;;
41293;SDS011;27037;52.010;4.446;2023-04-01T05:54:12;48.75;;;16.67;;
41293;SDS011;27037;52.010;4.446;2023-04-01T05:56:38;50.05;;;17.50;;
41293;SDS011;27037;52.010;4.446;2023-04-01T05:59:03;47.15;;;18.15;;
41293;SDS011;27037;52.010;4.446;2023-04-01T06:01:29;46.70;;;17.73;;
41293;SDS011;27037;52.010;4.446;2023-04-01T06:03:55;55.30;;;18.02;;
41293;SDS011;27037;52.010;4.446;2023-04-01T06:06:25;52.13;;;20.13;;
41293;SDS011;27037;52.010;4.446;2023-04-01T06:08:52;61.20;;;20.70;;
41293;SDS011;27037;52.010;4.446;2023-04-01T06:16:42;46.95;;;19.17;;
41293;SDS011;27037;52.010;4.446;2023-04-01T06:35:15;45.20;;;16.50;;
41293;SDS011;27037;52.010;4.446;2023-04-01T06:52:26;38.27;;;14.93;;
41293;SDS011;27037;52.010;4.446;2023-04-01T06:57:48;27.50;;;9.85;;
41293;SDS011;27037;52.010;4.446;2023-04-01T07:05:58;28.55;;;14.63;;
41293;SDS011;27037;52.010;4.446;2023-04-01T07:08:30;24.42;;;12.82;;
41293;SDS011;27037;52.010;4.446;2023-04-01T07:11:03;28.58;;;13.68;;
41293;SDS011;27037;52.010;4.446;2023-04-01T07:16:24;24.10;;;12.57;;
41293;SDS011;27037;52.010;4.446;2023-04-01T07:19:15;19.00;;;10.48;;
41293;SDS011;27037;52.010;4.446;2023-04-01T07:21:55;19.40;;;10.10;;
41293;SDS011;27037;52.010;4.446;2023-04-01T07:24:25;14.68;;;8.32;;
41293;SDS011;27037;52.010;4.446;2023-04-01T07:26:54;15.90;;;9.00;;
41293;SDS011;27037;52.010;4.446;2023-04-01T07:29:21;16.42;;;9.02;;
41293;SDS011;27037;52.010;4.446;2023-04-01T07:39:49;19.75;;;10.50;;
41293;SDS011;27037;52.010;4.446;2023-04-01T07:48:26;25.45;;;11.98;;
41293;SDS011;27037;52.010;4.446;2023-04-01T07:50:29;29.38;;;12.13;;
41293;SDS011;27037;52.010;4.446;2023-04-01T07:53:22;29.88;;;12.35;;
41293;SDS011;27037;52.010;4.446;2023-04-01T07:56:19;25.73;;;11.40;;
41293;SDS011;27037;52.010;4.446;2023-04-01T08:01:51;32.20;;;13.15;;
41293;SDS011;27037;52.010;4.446;2023-04-01T08:07:43;32.88;;;14.50;;
41293;SDS011;27037;52.010;4.446;2023-04-01T08:10:08;37.53;;;14.60;;
41293;SDS011;27037;52.010;4.446;2023-04-01T08:15:21;40.40;;;15.75;;
41293;SDS011;27037;52.010;4.446;2023-04-01T08:20:33;46.53;;;16.23;;
41293;SDS011;27037;52.010;4.446;2023-04-01T08:25:46;42.80;;;15.30;;
41293;SDS011;27037;52.010;4.446;2023-04-01T08:28:40;42.90;;;15.68;;
41293;SDS011;27037;52.010;4.446;2023-04-01T08:31:49;45.53;;;16.73;;
41293;SDS011;27037;52.010;4.446;2023-04-01T08:34:21;51.20;;;17.42;;
41293;SDS011;27037;52.010;4.446;2023-04-01T08:36:52;48.15;;;16.65;;
41293;SDS011;27037;52.010;4.446;2023-04-01T08:39:35;43.58;;;15.80;;
41293;SDS011;27037;52.010;4.446;2023-04-01T08:42:11;40.17;;;14.85;;
41293;SDS011;27037;52.010;4.446;2023-04-01T08:45:09;45.53;;;16.08;;
41293;SDS011;27037;52.010;4.446;2023-04-01T08:55:56;40.72;;;16.10;;
41293;SDS011;27037;52.010;4.446;2023-04-01T09:13:20;29.02;;;12.00;;
41293;SDS011;27037;52.010;4.446;2023-04-01T09:22:13;42.08;;;17.27;;
41293;SDS011;27037;52.010;4.446;2023-04-01T09:25:01;41.83;;;17.17;;
41293;SDS011;27037;52.010;4.446;2023-04-01T09:33:06;44.60;;;17.02;;
41293;SDS011;27037;52.010;4.446;2023-04-01T09:36:12;35.83;;;13.43;;
41293;SDS011;27037;52.010;4.446;2023-04-01T09:43:57;33.55;;;13.27;;
41293;SDS011;27037;52.010;4.446;2023-04-01T09:46:39;32.70;;;13.63;;
41293;SDS011;27037;52.010;4.446;2023-04-01T09:52:23;33.28;;;13.25;;
41293;SDS011;27037;52.010;4.446;2023-04-01T10:22:18;30.48;;;12.63;;
41293;SDS011;27037;52.010;4.446;2023-04-01T10:51:15;28.17;;;11.30;;
41293;SDS011;27037;52.010;4.446;2023-04-01T10:59:28;31.52;;;12.68;;
41293;SDS011;27037;52.010;4.446;2023-04-01T11:22:16;44.88;;;15.25;;
41293;SDS011;27037;52.010;4.446;2023-04-01T11:25:25;42.78;;;15.85;;
41293;SDS011;27037;52.010;4.446;2023-04-01T11:31:04;42.70;;;16.23;;
41293;SDS011;27037;52.010;4.446;2023-04-01T11:39:24;36.90;;;14.13;;
41293;SDS011;27037;52.010;4.446;2023-04-01T11:44:37;38.40;;;13.80;;
41293;SDS011;27037;52.010;4.446;2023-04-01T11:52:35;34.35;;;14.05;;
41293;SDS011;27037;52.010;4.446;2023-04-01T12:10:02;23.85;;;11.23;;
41293;SDS011;27037;52.010;4.446;2023-04-01T12:12:44;27.40;;;10.43;;
41293;SDS011;27037;52.010;4.446;2023-04-01T12:15:29;30.70;;;11.35;;
41293;SDS011;27037;52.010;4.446;2023-04-01T12:18:17;29.77;;;10.75;;
41293;SDS011;27037;52.010;4.446;2023-04-01T12:20:50;30.85;;;12.23;;
41293;SDS011;27037;52.010;4.446;2023-04-01T12:23:42;28.30;;;11.32;;
41293;SDS011;27037;52.010;4.446;2023-04-01T12:26:43;28.35;;;11.35;;
41293;SDS011;27037;52.010;4.446;2023-04-01T12:29:23;25.67;;;11.18;;
41293;SDS011;27037;52.010;4.446;2023-04-01T12:38:13;28.80;;;12.10;;
41293;SDS011;27037;52.010;4.446;2023-04-01T12:41:02;27.02;;;10.95;;
41293;SDS011;27037;52.010;4.446;2023-04-01T13:17:56;29.48;;;10.88;;
41293;SDS011;27037;52.010;4.446;2023-04-01T13:23:24;36.83;;;12.20;;
41293;SDS011;27037;52.010;4.446;2023-04-01T13:26:25;24.73;;;10.65;;
41293;SDS011;27037;52.010;4.446;2023-04-01T13:42:47;19.05;;;7.72;;
41293;SDS011;27037;52.010;4.446;2023-04-01T13:55:39;14.52;;;7.25;;
41293;SDS011;27037;52.010;4.446;2023-04-01T13:58:22;19.70;;;7.20;;
41293;SDS011;27037;52.010;4.446;2023-04-01T14:04:34;22.50;;;7.25;;
41293;SDS011;27037;52.010;4.446;2023-04-01T14:09:40;21.98;;;7.68;;
41293;SDS011;27037;52.010;4.446;2023-04-01T14:23:23;21.35;;;7.78;;
41293;SDS011;27037;52.010;4.446;2023-04-01T14:34:09;23.73;;;6.90;;
41293;SDS011;27037;52.010;4.446;2023-04-01T14:39:28;22.42;;;6.93;;
41293;SDS011;27037;52.010;4.446;2023-04-01T14:42:08;30.02;;;6.68;;
41293;SDS011;27037;52.010;4.446;2023-04-01T14:47:34;24.67;;;6.20;;
41293;SDS011;27037;52.010;4.446;2023-04-01T14:50:20;24.77;;;6.88;;
41293;SDS011;27037;52.010;4.446;2023-04-01T15:00:54;21.20;;;5.82;;
41293;SDS011;27037;52.010;4.446;2023-04-01T15:14:36;18.02;;;5.63;;
41293;SDS011;27037;52.010;4.446;2023-04-01T15:17:39;23.33;;;6.45;;
41293;SDS011;27037;52.010;4.446;2023-04-01T15:33:17;25.73;;;6.80;;
41293;SDS011;27037;52.010;4.446;2023-04-01T15:36:10;26.90;;;8.07;;
41293;SDS011;27037;52.010;4.446;2023-04-01T15:38:53;23.15;;;6.68;;
41293;SDS011;27037;52.010;4.446;2023-04-01T15:44:35;25.33;;;7.25;;
41293;SDS011;27037;52.010;4.446;2023-04-01T15:50:34;30.52;;;7.63;;
41293;SDS011;27037;52.010;4.446;2023-04-01T15:55:47;20.15;;;6.97;;
41293;SDS011;27037;52.010;4.446;2023-04-01T16:03:51;21.25;;;6.95;;
41293;SDS011;27037;52.010;4.446;2023-04-01T16:09:31;26.20;;;8.27;;
41293;SDS011;27037;52.010;4.446;2023-04-01T16:12:19;19.05;;;7.25;;
41293;SDS011;27037;52.010;4.446;2023-04-01T16:15:03;24.17;;;8.50;;
41293;SDS011;27037;52.010;4.446;2023-04-01T16:21:02;28.67;;;8.57;;
41293;SDS011;27037;52.010;4.446;2023-04-01T16:23:40;21.97;;;7.83;;
41293;SDS011;27037;52.010;4.446;2023-04-01T16:26:17;22.75;;;7.88;;
41293;SDS011;27037;52.010;4.446;2023-04-01T16:31:32;24.88;;;8.40;;
41293;SDS011;27037;52.010;4.446;2023-04-01T16:34:10;22.63;;;8.75;;
41293;SDS011;27037;52.010;4.446;2023-04-01T16:36:47;22.13;;;7.97;;
41293;SDS011;27037;52.010;4.446;2023-04-01T16:45:23;18.58;;;10.95;;
41293;SDS011;27037;52.010;4.446;2023-04-01T16:47:58;19.95;;;11.32;;
41293;SDS011;27037;52.010;4.446;2023-04-01T16:50:46;15.90;;;9.80;;
41293;SDS011;27037;52.010;4.446;2023-04-01T16:56:11;14.77;;;8.25;;
41293;SDS011;27037;52.010;4.446;2023-04-01T16:58:42;14.55;;;8.85;;
41293;SDS011;27037;52.010;4.446;2023-04-01T17:01:24;14.00;;;9.32;;
41293;SDS011;27037;52.010;4.446;2023-04-01T17:04:18;13.38;;;9.02;;
41293;SDS011;27037;52.010;4.446;2023-04-01T17:06:50;20.10;;;9.90;;
41293;SDS011;27037;52.010;4.446;2023-04-01T17:12:10;17.08;;;10.10;;
41293;SDS011;27037;52.010;4.446;2023-04-01T17:20:48;16.33;;;10.02;;
41293;SDS011;27037;52.010;4.446;2023-04-01T17:23:43;13.25;;;9.68;;
41293;SDS011;27037;52.010;4.446;2023-04-01T17:26:33;14.65;;;9.88;;
41293;SDS011;27037;52.010;4.446;2023-04-01T17:29:55;16.45;;;9.98;;
41293;SDS011;27037;52.010;4.446;2023-04-01T17:32:21;17.52;;;10.40;;
41293;SDS011;27037;52.010;4.446;2023-04-01T17:45:57;14.57;;;9.77;;
41293;SDS011;27037;52.010;4.446;2023-04-01T17:56:57;14.27;;;9.43;;
41293;SDS011;27037;52.010;4.446;2023-04-01T17:59:38;13.85;;;9.20;;
41293;SDS011;27037;52.010;4.446;2023-04-01T18:05:35;13.85;;;9.45;;
41293;SDS011;27037;52.010;4.446;2023-04-01T18:08:12;13.85;;;9.52;;
41293;SDS011;27037;52.010;4.446;2023-04-01T18:10:46;12.57;;;9.35;;
41293;SDS011;27037;52.010;4.446;2023-04-01T18:29:41;11.02;;;8.82;;
41293;SDS011;27037;52.010;4.446;2023-04-01T18:35:22;11.18;;;9.20;;
41293;SDS011;27037;52.010;4.446;2023-04-01T18:37:59;15.63;;;9.15;;
41293;SDS011;27037;52.010;4.446;2023-04-01T18:40:38;12.65;;;8.40;;
41293;SDS011;27037;52.010;4.446;2023-04-01T18:43:33;11.38;;;8.20;;
41293;SDS011;27037;52.010;4.446;2023-04-01T18:46:49;12.00;;;8.75;;
41293;SDS011;27037;52.010;4.446;2023-04-01T18:51:49;12.25;;;8.35;;
41293;SDS011;27037;52.010;4.446;2023-04-01T18:57:25;11.75;;;8.93;;
41293;SDS011;27037;52.010;4.446;2023-04-01T19:00:08;10.15;;;8.35;;
41293;SDS011;27037;52.010;4.446;2023-04-01T19:02:40;10.25;;;8.35;;
41293;SDS011;27037;52.010;4.446;2023-04-01T19:05:23;10.32;;;7.82;;
41293;SDS011;27037;52.010;4.446;2023-04-01T19:08:11;10.50;;;8.23;;
41293;SDS011;27037;52.010;4.446;2023-04-01T19:19:08;13.77;;;8.85;;
41293;SDS011;27037;52.010;4.446;2023-04-01T19:37:39;10.80;;;8.48;;
41293;SDS011;27037;52.010;4.446;2023-04-01T19:43:03;9.38;;;7.88;;
41293;SDS011;27037;52.010;4.446;2023-04-01T19:45:41;11.65;;;8.73;;
41293;SDS011;27037;52.010;4.446;2023-04-01T19:51:10;11.15;;;8.88;;
41293;SDS011;27037;52.010;4.446;2023-04-01T19:56:45;14.60;;;9.02;;
41293;SDS011;27037;52.010;4.446;2023-04-01T19:59:22;13.65;;;9.05;;
41293;SDS011;27037;52.010;4.446;2023-04-01T20:04:34;12.43;;;10.00;;
41293;SDS011;27037;52.010;4.446;2023-04-01T20:07:09;14.07;;;9.52;;
41293;SDS011;27037;52.010;4.446;2023-04-01T20:09:50;12.85;;;9.98;;
41293;SDS011;27037;52.010;4.446;2023-04-01T20:17:59;17.33;;;10.95;;
41293;SDS011;27037;52.010;4.446;2023-04-01T20:20:29;14.95;;;10.35;;
41293;SDS011;27037;52.010;4.446;2023-04-01T20:25:46;17.05;;;11.32;;
41293;SDS011;27037;52.010;4.446;2023-04-01T20:36:20;15.48;;;11.07;;
41293;SDS011;27037;52.010;4.446;2023-04-01T20:44:27;19.10;;;12.15;;
41293;SDS011;27037;52.010;4.446;2023-04-01T20:47:06;17.05;;;11.93;;
41293;SDS011;27037;52.010;4.446;2023-04-01T20:55:58;20.00;;;12.95;;
41293;SDS011;27037;52.010;4.446;2023-04-01T21:13:01;12.23;;;8.32;;
41293;SDS011;27037;52.010;4.446;2023-04-01T21:15:38;13.25;;;8.45;;
41293;SDS011;27037;52.010;4.446;2023-04-01T21:18:29;17.98;;;10.80;;
41293;SDS011;27037;52.010;4.446;2023-04-01T21:26:44;17.75;;;10.95;;
41293;SDS011;27037;52.010;4.446;2023-04-01T21:34:42;13.57;;;8.25;;
41293;SDS011;27037;52.010;4.446;2023-04-01T21:45:37;12.57;;;8.13;;
41293;SDS011;27037;52.010;4.446;2023-04-01T21:48:23;12.88;;;8.27;;
41293;SDS011;27037;52.010;4.446;2023-04-01T21:59:52;10.27;;;7.55;;
41293;SDS011;27037;52.010;4.446;2023-04-01T22:02:54;12.75;;;7.75;;
41293;SDS011;27037;52.010;4.446;2023-04-01T22:10:34;10.57;;;7.60;;
41293;SDS011;27037;52.010;4.446;2023-04-01T22:15:56;10.80;;;7.25;;
41293;SDS011;27037;52.010;4.446;2023-04-01T22:18:57;10.18;;;7.20;;
41293;SDS011;27037;52.010;4.446;2023-04-01T22:24:41;10.63;;;7.57;;
41293;SDS011;27037;52.010;4.446;2023-04-01T22:32:45;12.23;;;8.13;;
41293;SDS011;27037;52.010;4.446;2023-04-01T22:35:49;10.70;;;8.13;;
41293;SDS011;27037;52.010;4.446;2023-04-01T22:43:36;12.70;;;8.77;;
41293;SDS011;27037;52.010;4.446;2023-04-01T22:48:45;13.85;;;8.35;;
41293;SDS011;27037;52.010;4.446;2023-04-01T22:51:22;13.02;;;9.02;;
41293;SDS011;27037;52.010;4.446;2023-04-01T22:56:55;16.52;;;10.18;;
41293;SDS011;27037;52.010;4.446;2023-04-01T22:59:44;15.65;;;9.90;;
41293;SDS011;27037;52.010;4.446;2023-04-01T23:02:26;17.77;;;10.77;;
41293;SDS011;27037;52.010;4.446;2023-04-01T23:05:02;17.13;;;10.43;;
41293;SDS011;27037;52.010;4.446;2023-04-01T23:10:26;16.55;;;10.55;;
41293;SDS011;27037;52.010;4.446;2023-04-01T23:12:55;17.75;;;10.73;;
41293;SDS011;27037;52.010;4.446;2023-04-01T23:15:23;15.77;;;9.65;;
41293;SDS011;27037;52.010;4.446;2023-04-01T23:23:29;18.85;;;10.60;;
41293;SDS011;27037;52.010;4.446;2023-04-01T23:26:07;19.30;;;9.88;;
41293;SDS011;27037;52.010;4.446;2023-04-01T23:28:53;22.40;;;10.82;;
41293;SDS011;27037;52.010;4.446;2023-04-01T23:31:31;16.75;;;9.98;;
41293;SDS011;27037;52.010;4.446;2023-04-01T23:41:46;16.70;;;10.80;;
41293;SDS011;27037;52.010;4.446;2023-04-01T23:44:12;22.55;;;11.13;;
41293;SDS011;27037;52.010;4.446;2023-04-01T23:46:39;20.80;;;11.05;;
41293;SDS011;27037;52.010;4.446;2023-04-01T23:49:14;19.17;;;10.45;;
41293;SDS011;27037;52.010;4.446;2023-04-01T23:51:49;20.65;;;11.27;;
41293;SDS011;27037;52.010;4.446;2023-04-01T23:54:24;20.23;;;11.30;;
41293;SDS011;27037;52.010;4.446;2023-04-01T23:56:55;21.27;;;10.85;;
41293;SDS011;27037;52.010;4.446;2023-04-01T23:59:30;23.45;;;10.95;;
